createdAt,value
2023-05-05T00:01:20.702Z,101617.19
2023-05-05T00:03:47.500Z,101618.50
2023-05-05T00:06:14.709Z,101627.22
2023-05-05T00:08:41.901Z,101640.25
2023-05-05T00:11:08.644Z,101641.59
2023-05-05T00:13:35.620Z,101640.59
2023-05-05T00:16:03.982Z,101618.25
2023-05-05T00:18:30.720Z,101633.56
2023-05-05T00:20:57.262Z,101647.78
2023-05-05T00:23:23.848Z,101654.81
2023-05-05T00:25:50.434Z,101644.41
2023-05-05T00:28:16.990Z,101641.03
2023-05-05T00:30:43.805Z,101615.75
2023-05-05T00:33:10.393Z,101619.25
2023-05-05T00:35:37.106Z,101633.47
2023-05-05T00:38:04.164Z,101628.28
2023-05-05T00:40:31.059Z,101626.97
2023-05-05T00:42:59.583Z,101628.81
2023-05-05T00:45:26.273Z,101623.47
2023-05-05T00:47:56.962Z,101634.31
2023-05-05T00:50:31.819Z,101627.81
2023-05-05T00:53:03.760Z,101619.25
2023-05-05T00:55:31.765Z,101616.72
2023-05-05T00:57:59.237Z,101610.56
2023-05-05T01:00:26.598Z,101624.25
2023-05-05T01:02:53.659Z,101616.72
2023-05-05T01:05:23.614Z,101616.72
2023-05-05T01:08:17.427Z,101605.53
2023-05-05T01:10:57.561Z,101594.59
2023-05-05T01:13:48.427Z,101612.41
2023-05-05T01:16:21.006Z,101612.56
2023-05-05T01:19:02.183Z,101615.69
2023-05-05T01:21:46.750Z,101611.03
2023-05-05T01:24:34.976Z,101599.19
2023-05-05T01:27:38.390Z,101598.34
2023-05-05T01:30:29.778Z,101609.03
2023-05-05T01:33:03.916Z,101602.16
2023-05-05T01:35:50.149Z,101610.19
2023-05-05T01:38:22.356Z,101609.34
2023-05-05T01:40:54.502Z,101618.34
2023-05-05T01:43:23.259Z,101615.69
2023-05-05T01:45:50.862Z,101605.97
2023-05-05T01:48:19.571Z,101613.16
2023-05-05T01:50:48.372Z,101600.94
2023-05-05T01:53:18.159Z,101611.47
2023-05-05T01:55:47.464Z,101617.50
2023-05-05T01:58:16.043Z,101613.31
2023-05-05T02:00:44.057Z,101610.34
2023-05-05T02:03:13.647Z,101611.47
2023-05-05T02:05:42.008Z,101606.13
2023-05-05T02:08:09.807Z,101621.03
2023-05-05T02:10:40.879Z,101623.72
2023-05-05T02:13:10.530Z,101624.53
2023-05-05T02:15:39.393Z,101629.06
2023-05-05T02:18:07.609Z,101632.41
2023-05-05T02:20:37.414Z,101623.84
2023-05-05T02:23:05.842Z,101609.09
2023-05-05T02:25:38.488Z,101626.38
2023-05-05T02:28:09.617Z,101631.88
2023-05-05T02:30:39.120Z,101622.16
2023-05-05T02:33:11.742Z,101611.63
2023-05-05T02:35:41.058Z,101603.47
2023-05-05T02:38:17.273Z,101590.09
2023-05-05T02:40:46.703Z,101611.13
2023-05-05T02:43:18.425Z,101623.31
2023-05-05T02:45:45.219Z,101596.97
2023-05-05T02:48:13.083Z,101611.13
2023-05-05T02:50:39.864Z,101608.59
2023-05-05T02:53:06.572Z,101612.41
2023-05-05T02:55:45.468Z,101625.47
2023-05-05T02:58:29.009Z,101619.19
2023-05-05T03:01:19.341Z,101623.41
2023-05-05T03:04:06.350Z,101623.41
2023-05-05T03:06:42.743Z,101615.81
2023-05-05T03:09:18.530Z,101621.03
2023-05-05T03:11:51.036Z,101633.03
2023-05-05T03:14:19.858Z,101629.53
2023-05-05T03:16:48.432Z,101636.69
2023-05-05T03:19:18.488Z,101642.03
2023-05-05T03:21:45.467Z,101639.66
2023-05-05T03:24:17.707Z,101645.56
2023-05-05T03:26:46.246Z,101651.06
2023-05-05T03:29:14.163Z,101661.59
2023-05-05T03:31:41.127Z,101666.78
2023-05-05T03:34:08.320Z,101660.22
2023-05-05T03:36:35.978Z,101672.28
2023-05-05T03:39:02.590Z,101663.56
2023-05-05T03:41:29.173Z,101657.69
2023-05-05T03:43:55.739Z,101668.09
2023-05-05T03:46:22.303Z,101670.91
2023-05-05T03:48:48.917Z,101669.06
2023-05-05T03:51:15.669Z,101670.59
2023-05-05T03:53:42.276Z,101656.84
2023-05-05T03:56:09.083Z,101659.78
2023-05-05T03:58:35.613Z,101662.59
2023-05-05T04:01:02.237Z,101653.19
2023-05-05T04:03:28.869Z,101650.94
2023-05-05T04:05:55.914Z,101679.75
2023-05-05T04:08:22.601Z,101685.94
2023-05-05T04:10:49.191Z,101685.09
2023-05-05T04:13:15.824Z,101689.91
2023-05-05T04:15:46.504Z,101693.41
2023-05-05T04:18:13.340Z,101710.00
2023-05-05T04:20:40.334Z,101714.50
2023-05-05T04:23:06.879Z,101703.75
2023-05-05T04:25:33.899Z,101720.00
2023-05-05T04:28:00.580Z,101725.50
2023-05-05T04:30:27.326Z,101721.13
2023-05-05T04:32:53.940Z,101722.69
2023-05-05T04:35:20.680Z,101734.34
2023-05-05T04:37:47.249Z,101737.88
2023-05-05T04:40:13.858Z,101739.56
2023-05-05T04:42:40.506Z,101734.50
2023-05-05T04:45:08.527Z,101717.50
2023-05-05T04:47:39.456Z,101733.97
2023-05-05T04:50:07.326Z,101748.56
2023-05-05T04:52:34.193Z,101746.88
2023-05-05T04:55:01.276Z,101746.72
2023-05-05T04:57:27.879Z,101744.94
2023-05-05T04:59:54.451Z,101755.03
2023-05-05T05:02:21.124Z,101750.53
2023-05-05T05:04:47.888Z,101754.19
2023-05-05T05:07:17.324Z,101741.25
2023-05-05T05:09:43.880Z,101747.16
2023-05-05T05:12:10.558Z,101756.03
2023-05-05T05:14:40.390Z,101754.06
2023-05-05T05:17:07.101Z,101750.69
2023-05-05T05:19:33.949Z,101756.72
2023-05-05T05:22:00.677Z,101766.97
2023-05-05T05:24:27.226Z,101773.16
2023-05-05T05:26:54.054Z,101760.66
2023-05-05T05:29:20.767Z,101772.41
2023-05-05T05:31:47.341Z,101764.53
2023-05-05T05:34:13.987Z,101778.03
2023-05-05T05:36:40.690Z,101769.31
2023-05-05T05:39:07.243Z,101775.72
2023-05-05T05:41:33.833Z,101765.50
2023-05-05T05:44:00.512Z,101772.06
2023-05-05T05:46:27.026Z,101771.91
2023-05-05T05:48:53.645Z,101775.44
2023-05-05T05:51:20.210Z,101776.53
2023-05-05T05:53:46.793Z,101768.94
2023-05-05T05:56:13.349Z,101768.25
2023-05-05T05:58:40.635Z,101777.38
2023-05-05T06:01:07.274Z,101776.91
2023-05-05T06:03:34.209Z,101774.38
2023-05-05T06:06:01.013Z,101778.00
2023-05-05T06:08:27.627Z,101773.47
2023-05-05T06:10:54.204Z,101773.47
2023-05-05T06:13:21.444Z,101775.25
2023-05-05T06:15:48.108Z,101780.44
2023-05-05T06:18:14.728Z,101774.41
2023-05-05T06:20:41.414Z,101781.84
2023-05-05T06:23:07.998Z,101784.31
2023-05-05T06:25:34.613Z,101782.19
2023-05-05T06:28:01.932Z,101775.84
2023-05-05T06:30:28.582Z,101788.50
2023-05-05T06:32:55.251Z,101779.16
2023-05-05T06:35:22.386Z,101789.56
2023-05-05T06:37:49.018Z,101788.03
2023-05-05T06:40:15.666Z,101784.38
2023-05-05T06:42:42.270Z,101788.88
2023-05-05T06:45:09.146Z,101781.44
2023-05-05T06:47:36.378Z,101785.50
2023-05-05T06:50:03.789Z,101790.97
2023-05-05T06:52:30.427Z,101802.41
2023-05-05T06:54:56.954Z,101798.06
2023-05-05T06:57:23.684Z,101801.28
2023-05-05T06:59:50.225Z,101795.38
2023-05-05T07:02:16.839Z,101800.44
2023-05-05T07:04:44.062Z,101804.50
2023-05-05T07:07:10.631Z,101804.34
2023-05-05T07:09:37.226Z,101812.53
2023-05-05T07:12:04.015Z,101815.88
2023-05-05T07:14:30.784Z,101811.38
2023-05-05T07:16:57.330Z,101817.56
2023-05-05T07:19:23.955Z,101819.25
2023-05-05T07:21:50.574Z,101832.47
2023-05-05T07:24:17.164Z,101818.22
2023-05-05T07:26:44.052Z,101831.03
2023-05-05T07:29:10.609Z,101822.31
2023-05-05T07:31:37.190Z,101826.91
2023-05-05T07:34:03.733Z,101815.94
2023-05-05T07:36:30.451Z,101817.03
2023-05-05T07:38:57.131Z,101834.44
2023-05-05T07:41:23.772Z,101824.03
2023-05-05T07:43:50.323Z,101824.28
2023-05-05T07:46:17.839Z,101820.47
2023-05-05T07:48:44.517Z,101812.59
2023-05-05T07:51:11.082Z,101830.53
2023-05-05T07:53:37.729Z,101821.66
2023-05-05T07:56:04.454Z,101831.69
2023-05-05T07:58:31.070Z,101829.69
2023-05-05T08:00:57.719Z,101823.84
2023-05-05T08:03:24.865Z,101817.31
2023-05-05T08:05:54.649Z,101819.53
2023-05-05T08:08:24.939Z,101816.84
2023-05-05T08:10:53.208Z,101821.75
2023-05-05T08:13:20.221Z,101821.59
2023-05-05T08:15:46.925Z,101834.50
2023-05-05T08:18:14.471Z,101821.41
2023-05-05T08:20:41.220Z,101834.03
2023-05-05T08:23:07.864Z,101843.06
2023-05-05T08:25:34.432Z,101823.09
2023-05-05T08:28:01.157Z,101830.69
2023-05-05T08:30:27.819Z,101831.97
2023-05-05T08:32:55.127Z,101828.78
2023-05-05T08:35:22.289Z,101847.06
2023-05-05T08:37:50.584Z,101838.13
2023-05-05T08:40:17.279Z,101842.47
2023-05-05T08:42:46.437Z,101847.69
2023-05-05T08:45:13.165Z,101849.69
2023-05-05T08:47:39.900Z,101853.34
2023-05-05T08:50:10.091Z,101861.38
2023-05-05T08:52:41.371Z,101859.53
2023-05-05T08:55:10.798Z,101862.06
2023-05-05T08:57:46.236Z,101860.69
2023-05-05T09:00:14.306Z,101867.72
2023-05-05T09:02:43.001Z,101854.50
2023-05-05T09:05:10.456Z,101857.84
2023-05-05T09:07:38.385Z,101862.91
2023-05-05T09:10:05.740Z,101857.31
2023-05-05T09:12:32.795Z,101850.28
2023-05-05T09:15:03.553Z,101864.59
2023-05-05T09:17:30.428Z,101861.22
2023-05-05T09:20:04.668Z,101869.63
2023-05-05T09:22:39.122Z,101853.66
2023-05-05T09:25:07.798Z,101858.56
2023-05-05T09:27:52.725Z,101861.09
2023-05-05T09:30:27.014Z,101858.31
2023-05-05T09:32:55.242Z,101866.59
2023-05-05T09:35:23.307Z,101870.56
2023-05-05T09:37:49.920Z,101871.56
2023-05-05T09:40:19.072Z,101875.06
2023-05-05T09:42:45.983Z,101886.78
2023-05-05T09:45:18.483Z,101889.44
2023-05-05T09:47:48.790Z,101871.34
2023-05-05T09:50:18.617Z,101877.06
2023-05-05T09:52:56.171Z,101882.41
2023-05-05T09:55:24.095Z,101865.44
2023-05-05T09:57:51.139Z,101873.88
2023-05-05T10:00:18.216Z,101883.88
2023-05-05T10:02:45.473Z,101876.84
2023-05-05T10:05:13.757Z,101877.84
2023-05-05T10:07:42.354Z,101888.09
2023-05-05T10:10:14.822Z,101883.88
2023-05-05T10:12:42.213Z,101887.56
2023-05-05T10:15:10.854Z,101905.66
2023-05-05T10:17:57.810Z,101899.31
2023-05-05T10:20:33.389Z,101902.63
2023-05-05T10:23:05.297Z,101904.31
2023-05-05T10:25:39.174Z,101914.53
2023-05-05T10:28:07.600Z,101914.69
2023-05-05T10:30:40.595Z,101906.50
2023-05-05T10:33:30.873Z,101903.84
2023-05-05T10:36:01.597Z,101894.28
2023-05-05T10:38:33.734Z,101898.47
2023-05-05T10:41:01.581Z,101882.25
2023-05-05T10:43:29.676Z,101880.56
2023-05-05T10:45:57.064Z,101868.19
2023-05-05T10:48:56.662Z,101863.66
2023-05-05T10:51:38.694Z,101874.22
2023-05-05T10:54:13.896Z,101867.81
2023-05-05T10:56:42.137Z,101878.38
2023-05-05T10:59:39.581Z,101881.91
2023-05-05T11:02:28.466Z,101883.03
2023-05-05T11:05:18.408Z,101882.50
2023-05-05T11:07:46.541Z,101891.38
2023-05-05T11:10:15.036Z,101889.00
2023-05-05T11:12:59.260Z,101892.38
2023-05-05T11:15:31.716Z,101894.34
2023-05-05T11:17:59.883Z,101883.13
2023-05-05T11:20:35.908Z,101891.53
2023-05-05T11:23:02.445Z,101892.38
2023-05-05T11:25:39.092Z,101895.88
2023-05-05T11:28:08.517Z,101888.69
2023-05-05T11:30:36.675Z,101885.03
2023-05-05T11:33:38.271Z,101887.69
2023-05-05T11:36:13.231Z,101878.13
2023-05-05T11:39:05.389Z,101890.38
2023-05-05T11:42:13.792Z,101893.91
2023-05-05T11:44:41.681Z,101889.00
2023-05-05T11:47:08.195Z,101894.75
2023-05-05T11:49:39.331Z,101898.25
2023-05-05T11:52:11.209Z,101898.41
2023-05-05T11:54:52.280Z,101904.06
2023-05-05T11:57:27.050Z,101903.91
2023-05-05T12:00:02.057Z,101915.19
2023-05-05T12:02:29.961Z,101913.63
2023-05-05T12:04:59.543Z,101900.69
2023-05-05T12:07:28.654Z,101915.31
2023-05-05T12:09:55.430Z,101909.28
2023-05-05T12:12:34.976Z,101911.81
2023-05-05T12:15:01.830Z,101908.13
2023-05-05T12:17:37.628Z,101902.78
2023-05-05T12:20:04.555Z,101895.72
2023-05-05T12:22:31.128Z,101893.50
2023-05-05T12:25:06.474Z,101886.66
2023-05-05T12:27:33.413Z,101893.50
2023-05-05T12:30:17.523Z,101904.63
2023-05-05T12:32:45.324Z,101894.34
2023-05-05T12:35:12.857Z,101898.56
2023-05-05T12:37:39.863Z,101898.56
2023-05-05T12:40:08.842Z,101889.53
2023-05-05T12:42:39.428Z,101876.84
2023-05-05T12:45:16.074Z,101870.66
2023-05-05T12:47:44.088Z,101898.13
2023-05-05T12:50:11.125Z,101901.63
2023-05-05T12:52:43.064Z,101892.59
2023-05-05T12:55:11.252Z,101889.78
2023-05-05T12:57:38.397Z,101890.09
2023-05-05T13:00:16.238Z,101897.81
2023-05-05T13:02:42.933Z,101896.97
2023-05-05T13:05:10.157Z,101893.44
2023-05-05T13:07:49.690Z,101897.97
2023-05-05T13:10:16.313Z,101894.97
2023-05-05T13:12:42.907Z,101881.22
2023-05-05T13:15:10.309Z,101882.25
2023-05-05T13:17:37.170Z,101881.75
2023-05-05T13:20:04.017Z,101885.94
2023-05-05T13:22:30.776Z,101887.78
2023-05-05T13:24:57.340Z,101893.97
2023-05-05T13:27:23.948Z,101889.31
2023-05-05T13:29:50.648Z,101894.50
2023-05-05T13:32:17.202Z,101898.34
2023-05-05T13:34:44.231Z,101897.34
2023-05-05T13:37:10.834Z,101887.47
2023-05-05T13:39:37.439Z,101879.44
2023-05-05T13:42:04.209Z,101879.44
2023-05-05T13:44:31.440Z,101887.09
2023-05-05T13:46:58.195Z,101891.28
2023-05-05T13:49:24.922Z,101901.16
2023-05-05T13:51:51.484Z,101900.50
2023-05-05T13:54:18.020Z,101902.16
2023-05-05T13:56:44.618Z,101903.97
2023-05-05T13:59:11.156Z,101901.16
2023-05-05T14:01:38.048Z,101902.00
2023-05-05T14:04:05.903Z,101903.84
2023-05-05T14:06:33.837Z,101905.66
2023-05-05T14:09:00.605Z,101904.53
2023-05-05T14:11:27.430Z,101877.38
2023-05-05T14:13:54.135Z,101874.03
2023-05-05T14:16:20.750Z,101871.69
2023-05-05T14:18:47.355Z,101874.72
2023-05-05T14:21:14.059Z,101880.72
2023-05-05T14:23:40.797Z,101880.06
2023-05-05T14:26:08.990Z,101860.34
2023-05-05T14:28:35.901Z,101849.38
2023-05-05T14:31:02.493Z,101856.41
2023-05-05T14:33:29.049Z,101855.44
2023-05-05T14:35:55.724Z,101858.25
2023-05-05T14:38:22.427Z,101859.94
2023-05-05T14:40:49.082Z,101850.38
2023-05-05T14:43:15.689Z,101852.19
2023-05-05T14:45:42.337Z,101863.59
2023-05-05T14:48:09.059Z,101854.88
2023-05-05T14:50:35.621Z,101854.88
2023-05-05T14:53:02.269Z,101839.13
2023-05-05T14:55:28.869Z,101853.88
2023-05-05T14:57:55.447Z,101854.88
2023-05-05T15:00:22.051Z,101856.41
2023-05-05T15:02:49.054Z,101854.88
2023-05-05T15:05:15.766Z,101870.78
2023-05-05T15:07:42.341Z,101871.09
2023-05-05T15:10:09.293Z,101869.81
2023-05-05T15:12:35.913Z,101869.94
2023-05-05T15:15:02.532Z,101867.13
2023-05-05T15:17:30.812Z,101871.34
2023-05-05T15:19:57.557Z,101871.34
2023-05-05T15:22:24.227Z,101861.31
2023-05-05T15:24:50.946Z,101860.47
2023-05-05T15:27:18.297Z,101871.69
2023-05-05T15:29:45.067Z,101862.31
2023-05-05T15:32:11.777Z,101866.69
2023-05-05T15:34:38.467Z,101858.94
2023-05-05T15:37:05.219Z,101863.00
2023-05-05T15:39:31.830Z,101858.66
2023-05-05T15:42:02.734Z,101856.28
2023-05-05T15:44:30.110Z,101850.91
2023-05-05T15:46:56.747Z,101852.06
2023-05-05T15:49:23.290Z,101854.28
2023-05-05T15:51:49.900Z,101855.28
2023-05-05T15:54:16.430Z,101845.56
2023-05-05T15:56:43.047Z,101845.84
2023-05-05T15:59:09.572Z,101841.19
2023-05-05T16:01:36.419Z,101843.56
2023-05-05T16:04:03.625Z,101831.47
2023-05-05T16:06:30.469Z,101828.78
2023-05-05T16:08:58.571Z,101826.66
2023-05-05T16:11:26.177Z,101829.00
2023-05-05T16:13:53.157Z,101824.34
2023-05-05T16:16:19.746Z,101828.00
2023-05-05T16:18:46.402Z,101827.72
2023-05-05T16:21:13.202Z,101820.53
2023-05-05T16:23:39.932Z,101817.16
2023-05-05T16:26:06.493Z,101825.03
2023-05-05T16:28:34.333Z,101801.72
2023-05-05T16:31:01.799Z,101829.63
2023-05-05T16:33:28.792Z,101825.13
2023-05-05T16:35:55.946Z,101818.06
2023-05-05T16:38:22.836Z,101827.47
2023-05-05T16:40:49.632Z,101828.31
2023-05-05T16:43:16.443Z,101820.28
2023-05-05T16:45:43.514Z,101814.06
2023-05-05T16:48:10.172Z,101821.81
2023-05-05T16:50:36.706Z,101817.09
2023-05-05T16:53:03.290Z,101814.75
2023-05-05T16:55:29.878Z,101820.81
2023-05-05T16:57:56.547Z,101822.78
2023-05-05T17:00:23.123Z,101821.66
2023-05-05T17:02:50.164Z,101820.81
2023-05-05T17:05:17.706Z,101810.94
2023-05-05T17:07:44.598Z,101821.19
2023-05-05T17:10:11.229Z,101818.81
2023-05-05T17:12:37.926Z,101820.34
2023-05-05T17:15:05.006Z,101821.88
2023-05-05T17:17:31.737Z,101813.84
2023-05-05T17:19:58.749Z,101825.38
2023-05-05T17:22:25.375Z,101818.34
2023-05-05T17:24:51.948Z,101822.38
2023-05-05T17:27:18.522Z,101824.22
2023-05-05T17:29:45.078Z,101823.53
2023-05-05T17:32:11.892Z,101819.84
2023-05-05T17:34:38.628Z,101819.56
2023-05-05T17:37:05.271Z,101815.03
2023-05-05T17:39:31.853Z,101817.41
2023-05-05T17:41:58.394Z,101823.59
2023-05-05T17:44:24.903Z,101812.06
2023-05-05T17:46:51.445Z,101826.28
2023-05-05T17:49:18.049Z,101815.88
2023-05-05T17:51:44.689Z,101826.81
2023-05-05T17:54:11.551Z,101817.09
2023-05-05T17:56:38.158Z,101811.91
2023-05-05T17:59:04.747Z,101805.69
2023-05-05T18:01:31.307Z,101809.38
2023-05-05T18:03:57.899Z,101812.59
2023-05-05T18:06:24.973Z,101813.03
2023-05-05T18:08:51.496Z,101818.41
2023-05-05T18:11:19.327Z,101830.34
2023-05-05T18:13:45.944Z,101837.53
2023-05-05T18:16:12.524Z,101832.19
2023-05-05T18:18:41.157Z,101826.81
2023-05-05T18:21:11.940Z,101829.13
2023-05-05T18:23:39.750Z,101829.81
2023-05-05T18:26:07.239Z,101831.66
2023-05-05T18:28:33.818Z,101829.81
2023-05-05T18:31:00.399Z,101826.59
2023-05-05T18:33:27.070Z,101829.81
2023-05-05T18:35:53.841Z,101843.06
2023-05-05T18:38:21.486Z,101836.16
2023-05-05T18:40:48.226Z,101829.44
2023-05-05T18:43:14.851Z,101833.63
2023-05-05T18:45:41.864Z,101837.00
2023-05-05T18:48:08.597Z,101831.13
2023-05-05T18:50:36.836Z,101837.16
2023-05-05T18:53:03.493Z,101834.78
2023-05-05T18:55:30.056Z,101848.03
2023-05-05T18:57:56.597Z,101848.34
2023-05-05T19:00:23.270Z,101851.16
2023-05-05T19:02:49.888Z,101861.88
2023-05-05T19:05:16.792Z,101850.66
2023-05-05T19:07:43.428Z,101849.97
2023-05-05T19:10:10.670Z,101855.47
2023-05-05T19:12:37.306Z,101860.13
2023-05-05T19:15:04.175Z,101852.78
2023-05-05T19:17:30.947Z,101858.16
2023-05-05T19:19:57.859Z,101859.16
2023-05-05T19:22:24.495Z,101848.84
2023-05-05T19:24:51.032Z,101861.28
2023-05-05T19:27:17.639Z,101863.13
2023-05-05T19:29:44.445Z,101857.25
2023-05-05T19:32:11.167Z,101859.94
2023-05-05T19:34:37.814Z,101860.94
2023-05-05T19:37:04.458Z,101865.44
2023-05-05T19:39:31.255Z,101863.47
2023-05-05T19:41:57.846Z,101863.59
2023-05-05T19:44:24.450Z,101863.47
2023-05-05T19:46:52.775Z,101861.22
2023-05-05T19:49:19.674Z,101862.75
2023-05-05T19:51:49.585Z,101854.34
2023-05-05T19:54:16.342Z,101857.84
2023-05-05T19:56:43.110Z,101868.41
2023-05-05T19:59:09.710Z,101876.31
2023-05-05T20:01:36.457Z,101876.47
2023-05-05T20:04:03.852Z,101876.59
2023-05-05T20:06:30.712Z,101865.00
2023-05-05T20:08:57.300Z,101878.06
2023-05-05T20:11:25.983Z,101874.53
2023-05-05T20:13:53.108Z,101884.44
2023-05-05T20:16:20.189Z,101889.78
2023-05-05T20:18:46.990Z,101884.59
2023-05-05T20:21:14.414Z,101893.13
2023-05-05T20:23:42.900Z,101888.75
2023-05-05T20:26:09.525Z,101893.97
2023-05-05T20:28:36.266Z,101888.75
2023-05-05T20:31:02.906Z,101885.78
2023-05-05T20:33:29.630Z,101878.75
2023-05-05T20:35:56.505Z,101877.06
2023-05-05T20:38:23.316Z,101862.31
2023-05-05T20:40:50.579Z,101876.75
2023-05-05T20:43:17.346Z,101868.19
2023-05-05T20:45:44.297Z,101881.28
2023-05-05T20:48:11.521Z,101874.38
2023-05-05T20:50:39.388Z,101880.56
2023-05-05T20:53:08.375Z,101886.94
2023-05-05T20:55:35.265Z,101888.94
2023-05-05T20:58:02.121Z,101887.56
2023-05-05T21:00:28.777Z,101885.03
2023-05-05T21:02:57.207Z,101889.53
2023-05-05T21:05:24.315Z,101878.44
2023-05-05T21:07:53.588Z,101884.47
2023-05-05T21:10:20.854Z,101896.03
2023-05-05T21:12:47.468Z,101895.50
2023-05-05T21:15:14.221Z,101894.97
2023-05-05T21:17:40.905Z,101895.97
2023-05-05T21:20:08.702Z,101894.44
2023-05-05T21:22:35.538Z,101883.03
2023-05-05T21:25:17.240Z,101891.75
2023-05-05T21:27:44.080Z,101894.44
2023-05-05T21:30:11.447Z,101895.28
2023-05-05T21:32:39.107Z,101893.88
2023-05-05T21:35:07.676Z,101893.72
2023-05-05T21:37:34.883Z,101888.38
2023-05-05T21:40:01.466Z,101882.66
2023-05-05T21:42:30.458Z,101881.81
2023-05-05T21:44:57.053Z,101884.50
2023-05-05T21:47:23.641Z,101879.97
2023-05-05T21:49:50.317Z,101892.53
2023-05-05T21:52:17.349Z,101880.13
2023-05-05T21:54:43.984Z,101881.97
2023-05-05T21:57:10.597Z,101885.63
2023-05-05T21:59:37.323Z,101879.59
2023-05-05T22:02:03.965Z,101873.53
2023-05-05T22:04:30.541Z,101882.69
2023-05-05T22:06:58.177Z,101886.75
2023-05-05T22:09:24.997Z,101878.03
2023-05-05T22:11:51.838Z,101870.31
2023-05-05T22:14:18.582Z,101872.25
2023-05-05T22:16:45.350Z,101864.41
2023-05-05T22:19:12.006Z,101873.28
2023-05-05T22:21:38.622Z,101873.28
2023-05-05T22:24:07.198Z,101874.41
2023-05-05T22:26:33.941Z,101882.97
2023-05-05T22:29:00.765Z,101882.97
2023-05-05T22:31:27.547Z,101882.59
2023-05-05T22:33:54.156Z,101876.53
2023-05-05T22:36:21.711Z,101870.78
2023-05-05T22:38:48.504Z,101891.47
2023-05-05T22:41:15.899Z,101877.69
2023-05-05T22:43:42.528Z,101883.88
2023-05-05T22:46:09.105Z,101871.47
2023-05-05T22:48:35.958Z,101882.03
2023-05-05T22:51:03.678Z,101862.09
2023-05-05T22:53:30.224Z,101862.09
2023-05-05T22:55:58.345Z,101871.94
2023-05-05T22:58:25.746Z,101868.44
2023-05-05T23:00:52.453Z,101875.28
2023-05-05T23:03:19.203Z,101865.91
2023-05-05T23:05:45.965Z,101863.38
2023-05-05T23:08:12.598Z,101877.31
2023-05-05T23:10:39.210Z,101869.41
2023-05-05T23:13:06.017Z,101864.06
2023-05-05T23:15:32.726Z,101840.25
2023-05-05T23:17:59.342Z,101862.69
2023-05-05T23:20:26.120Z,101861.69
2023-05-05T23:22:52.657Z,101880.41
2023-05-05T23:25:19.205Z,101877.88
2023-05-05T23:27:45.775Z,101875.66
2023-05-05T23:30:12.890Z,101876.34
2023-05-05T23:32:39.496Z,101879.88
2023-05-05T23:35:06.570Z,101872.97
2023-05-05T23:37:33.192Z,101874.81
2023-05-05T23:39:59.914Z,101860.22
2023-05-05T23:42:26.514Z,101872.31
2023-05-05T23:44:53.073Z,101863.72
2023-05-05T23:47:19.700Z,101867.25
2023-05-05T23:49:46.336Z,101859.22
2023-05-05T23:52:12.957Z,101851.50
2023-05-05T23:54:39.913Z,101853.31
2023-05-05T23:57:06.591Z,101855.16
2023-05-05T23:59:33.157Z,101856.84
